Nogalus, Texas
Current Conditions -  °F | °C
As of 1:28 PM on Friday 21 Nov 2014 (Local Time) from KLFK Reporting Station
Light Rain Light Rain  
Wind Chill: 65°   Ceiling: 1000
Heat Index: 65°   Visibility: 1.7mi
Dew Point: 61°   Wind: 12mph
Humidity: 87%   Direction: 130°SE
Pressure: 30.13"   Gusts: NA
Location:  31.0585°N, 95.0561°W
Report Text: KLFK 211928Z AUTO 13010KT 1 3/4SM -RA BR FEW006 BKN010 OVC021 18/16 A3013 RMK AO2 P0004 T01830161
Loading
Personal Weather Stations






























Interactive Weather Map New forecast layout! Learn more

10-Day Weather Forecast

Advertisements
Track Severe Weather on mobile